Time;durP1;ratioP1;P1;durP2;ratioP2;P2;SDS_P1;SDS_P2;PMS_P1;PMS_P2;Temp;Humidity;BMP_temperature;BMP_pressure;BME280_temperature;BME280_humidity;BME280_pressure;Samples;Min_cycle;Max_cycle;Signal;HPM_P1;HPM_P2
2022/05/08 00:00:36;;;;;;;;;;;;;;;13.97;57.76;102181.47;4414711;32;20042;-70
2022/05/08 00:03:02;;;;;;;;;;;;;;;13.95;58.04;102178.25;4416594;32;19961;-70
2022/05/08 00:05:27;;;;;;;;;;;;;;;14.46;56.64;102183.53;4412492;32;20420;-70
2022/05/08 00:07:53;;;;;;;;;;;;;;;14.33;56.59;102191.03;4415585;32;19973;-70
2022/05/08 00:10:19;;;;;;;;;;;;;;;14.41;56.85;102194.53;4416936;32;20008;-70
2022/05/08 00:12:44;;;;;;;;;;;;;;;14.40;56.57;102185.25;4414932;32;20001;-70
2022/05/08 00:15:10;;;;;;;;;;;;;;;14.37;56.90;102182.47;4415408;32;20453;-70
2022/05/08 00:17:35;;;;;;;;;;;;;;;14.39;57.11;102177.19;4414591;32;20641;-70
2022/05/08 00:20:02;;;;;;;;;;;;;;;14.35;57.13;102179.25;4414845;32;20311;-70
2022/05/08 00:22:27;;;;;;;;;;;;;;;14.28;57.49;102173.72;4413751;32;19985;-70
2022/05/08 00:24:53;;;;;;;;;;;;;;;14.28;57.44;102179.37;4414238;32;19997;-71
2022/05/08 00:27:20;;;;;;;;;;;;;;;14.33;57.45;102187.41;4413057;32;20036;-70
2022/05/08 00:29:45;;;;;;;;;;;;;;;14.35;56.97;102182.91;4401579;32;19997;-70
2022/05/08 00:32:11;;;;;;;;;;;;;;;14.24;57.54;102178.66;4401412;32;20571;-70
2022/05/08 00:34:37;;;;;;;;;;;;;;;14.30;57.27;102186.22;4415107;32;19996;-70
2022/05/08 00:37:03;;;;;;;;;;;;;;;14.32;57.48;102191.44;4416704;32;19945;-70
2022/05/08 00:39:29;;;;;;;;;;;;;;;14.34;57.90;102183.34;4402748;32;20260;-70
2022/05/08 00:41:55;;;;;;;;;;;;;;;14.44;57.73;102188.81;4399458;32;19954;-70
2022/05/08 00:44:20;;;;;;;;;;;;;;;14.45;57.96;102186.81;4414429;32;19954;-70
2022/05/08 00:46:48;;;;;;;;;;;;;;;14.61;57.46;102182.06;4414766;32;19992;-70
2022/05/08 00:49:14;;;;;;;;;;;;;;;14.43;58.08;102178.75;4415097;32;19993;-70
2022/05/08 00:51:40;;;;;;;;;;;;;;;14.51;57.98;102176.59;4415991;32;19989;-70
2022/05/08 00:54:05;;;;;;;;;;;;;;;14.55;57.95;102185.81;4415225;32;20009;-70
2022/05/08 00:56:31;;;;;;;;;;;;;;;14.59;57.76;102180.88;4414967;32;19988;-70
2022/05/08 00:58:57;;;;;;;;;;;;;;;14.61;57.75;102187.72;4415685;32;20128;-70
2022/05/08 01:01:23;;;;;;;;;;;;;;;14.63;57.73;102181.63;4413631;32;20260;-70
2022/05/08 01:03:48;;;;;;;;;;;;;;;14.58;57.41;102171.59;4413228;32;20007;-70
2022/05/08 01:06:16;;;;;;;;;;;;;;;14.67;57.61;102177.47;4416344;32;20408;-70
2022/05/08 01:08:42;;;;;;;;;;;;;;;14.68;57.69;102172.63;4413991;32;20027;-70
2022/05/08 01:11:09;;;;;;;;;;;;;;;14.68;57.61;102175.47;4411947;32;20382;-70
2022/05/08 01:13:35;;;;;;;;;;;;;;;14.64;57.44;102174.72;4411714;32;20028;-70
2022/05/08 01:16:00;;;;;;;;;;;;;;;14.67;57.49;102168.97;4417318;32;20111;-70
2022/05/08 01:18:26;;;;;;;;;;;;;;;14.65;57.72;102168.63;4417573;32;19989;-70
2022/05/08 01:20:52;;;;;;;;;;;;;;;14.68;57.74;102169.78;4417323;32;20028;-70
2022/05/08 01:23:19;;;;;;;;;;;;;;;14.68;57.81;102164.12;4411562;32;19965;-70
2022/05/08 01:25:47;;;;;;;;;;;;;;;14.66;57.78;102164.56;4416545;32;20014;-70
2022/05/08 01:28:13;;;;;;;;;;;;;;;14.70;57.38;102164.50;4413557;32;19953;-70
2022/05/08 01:30:40;;;;;;;;;;;;;;;14.58;57.86;102157.44;4415263;32;19996;-70
2022/05/08 01:33:05;;;;;;;;;;;;;;;14.56;57.89;102153.41;4401950;32;20022;-70
2022/05/08 01:35:31;;;;;;;;;;;;;;;14.40;58.48;102139.13;4419958;32;19961;-71
2022/05/08 01:37:57;;;;;;;;;;;;;;;14.12;59.33;102145.25;4417749;32;19993;-70
2022/05/08 01:40:22;;;;;;;;;;;;;;;14.08;59.38;102146.09;4415685;32;19965;-70
2022/05/08 01:42:48;;;;;;;;;;;;;;;14.26;59.04;102148.66;4416062;32;20320;-70
2022/05/08 01:45:13;;;;;;;;;;;;;;;14.20;59.52;102143.91;4419972;32;19981;-70
2022/05/08 01:50:25;;;;;;;;;;;;;;;14.15;59.76;102141.56;4412258;32;20338;-70
2022/05/08 01:52:51;;;;;;;;;;;;;;;14.19;59.78;102142.28;4416208;32;20001;-70
2022/05/08 01:55:17;;;;;;;;;;;;;;;14.19;59.80;102139.47;4414990;32;20641;-70
2022/05/08 01:57:43;;;;;;;;;;;;;;;14.22;59.80;102145.06;4403335;32;20011;-70
2022/05/08 02:00:09;;;;;;;;;;;;;;;14.72;58.10;102137.31;4417159;32;20525;-70
2022/05/08 02:02:35;;;;;;;;;;;;;;;14.42;58.41;102136.69;4416699;32;20047;-70
2022/05/08 02:05:01;;;;;;;;;;;;;;;14.17;59.70;102139.09;4414200;32;19961;-70
2022/05/08 02:07:28;;;;;;;;;;;;;;;14.57;58.64;102143.69;4418769;32;20001;-70
2022/05/08 02:09:53;;;;;;;;;;;;;;;14.13;59.86;102133.50;4415907;32;20537;-70
2022/05/08 02:12:19;;;;;;;;;;;;;;;14.62;58.55;102140.34;4415860;32;20023;-70
2022/05/08 02:14:45;;;;;;;;;;;;;;;14.09;59.79;102136.38;4414204;32;20450;-70
2022/05/08 02:17:11;;;;;;;;;;;;;;;14.07;59.93;102129.53;4401594;32;19966;-70
2022/05/08 02:19:38;;;;;;;;;;;;;;;14.00;60.17;102141.78;4416276;32;20007;-70
2022/05/08 02:22:03;;;;;;;;;;;;;;;14.16;59.35;102134.66;4413668;32;20000;-70
2022/05/08 02:24:29;;;;;;;;;;;;;;;14.19;59.34;102134.59;4413789;32;19961;-70
2022/05/08 02:26:54;;;;;;;;;;;;;;;14.20;59.32;102141.09;4401394;32;20460;-70
2022/05/08 02:29:20;;;;;;;;;;;;;;;14.23;59.28;102145.88;4415676;32;20042;-70
2022/05/08 02:31:46;;;;;;;;;;;;;;;14.30;58.47;102140.91;4417297;32;19957;-70
2022/05/08 02:34:11;;;;;;;;;;;;;;;14.32;58.62;102146.13;4416339;32;20011;-70
2022/05/08 02:36:37;;;;;;;;;;;;;;;14.34;58.38;102141.66;4414288;32;20475;-70
2022/05/08 02:39:03;;;;;;;;;;;;;;;14.40;57.98;102139.13;4417232;32;19993;-70
2022/05/08 02:41:28;;;;;;;;;;;;;;;14.36;58.17;102135.56;4415292;32;19957;-70
2022/05/08 02:43:53;;;;;;;;;;;;;;;14.25;58.43;102147.06;4414644;32;19989;-70
2022/05/08 02:46:19;;;;;;;;;;;;;;;14.32;58.09;102141.28;4416433;32;20014;-70
2022/05/08 02:48:45;;;;;;;;;;;;;;;14.30;57.91;102148.63;4412029;32;19969;-70
2022/05/08 02:51:11;;;;;;;;;;;;;;;14.26;57.90;102154.34;4414473;32;20038;-70
2022/05/08 02:53:37;;;;;;;;;;;;;;;14.16;58.54;102148.81;4412473;32;19965;-70
2022/05/08 02:58:48;;;;;;;;;;;;;;;14.29;57.51;102144.19;4414506;32;19985;-70
2022/05/08 03:01:14;;;;;;;;;;;;;;;14.38;57.66;102147.25;4413530;32;20048;-70
2022/05/08 03:03:39;;;;;;;;;;;;;;;14.36;57.79;102147.69;4414915;32;20370;-70
2022/05/08 03:06:05;;;;;;;;;;;;;;;14.32;57.58;102151.81;4416671;32;19993;-70
2022/05/08 03:08:31;;;;;;;;;;;;;;;14.30;57.53;102148.63;4417448;32;19989;-70
2022/05/08 03:11:29;;;;;;;;;;;;;;;14.22;57.85;102149.94;4411396;32;19995;-70
2022/05/08 03:13:42;;;;;;;;;;;;;;;14.16;58.02;102141.13;4414634;32;19990;-70
2022/05/08 03:16:08;;;;;;;;;;;;;;;14.17;58.17;102134.22;4417399;32;19961;-70
2022/05/08 03:18:38;;;;;;;;;;;;;;;14.19;58.07;102148.75;4415216;32;20036;-71
2022/05/08 03:21:04;;;;;;;;;;;;;;;14.21;57.93;102151.97;4415867;32;20096;-70
2022/05/08 03:23:30;;;;;;;;;;;;;;;14.14;58.10;102146.41;4415490;32;20410;-70
2022/05/08 03:25:57;;;;;;;;;;;;;;;14.18;58.07;102146.38;4416775;32;20397;-70
2022/05/08 03:28:22;;;;;;;;;;;;;;;14.33;57.28;102148.53;4414137;32;19969;-70
2022/05/08 03:30:48;;;;;;;;;;;;;;;14.54;56.68;102153.06;4418691;32;20091;-70
2022/05/08 03:33:14;;;;;;;;;;;;;;;14.35;57.23;102156.59;4399160;32;20058;-70
2022/05/08 03:35:40;;;;;;;;;;;;;;;14.19;57.84;102150.78;4416577;32;19997;-70
2022/05/08 03:38:06;;;;;;;;;;;;;;;14.25;57.70;102151.94;4415494;32;19958;-70
2022/05/08 03:40:32;;;;;;;;;;;;;;;14.41;56.93;102152.06;4413885;32;20011;-70
2022/05/08 03:42:58;;;;;;;;;;;;;;;14.40;56.94;102145.59;4412346;32;20004;-70
2022/05/08 03:45:24;;;;;;;;;;;;;;;14.01;58.13;102146.22;4412246;32;20000;-70
2022/05/08 03:47:51;;;;;;;;;;;;;;;14.01;57.83;102142.59;4413487;32;20236;-70
2022/05/08 03:50:17;;;;;;;;;;;;;;;14.28;57.43;102142.56;4412707;32;19957;-70
2022/05/08 03:52:42;;;;;;;;;;;;;;;14.37;56.25;102134.34;4413136;32;19966;-70
2022/05/08 03:55:08;;;;;;;;;;;;;;;14.29;56.82;102141.38;4414059;32;20558;-70
2022/05/08 03:57:33;;;;;;;;;;;;;;;14.31;56.73;102131.19;4413374;32;20595;-71
2022/05/08 03:59:59;;;;;;;;;;;;;;;14.29;56.91;102135.69;4414852;32;19995;-70
2022/05/08 04:02:25;;;;;;;;;;;;;;;14.31;56.85;102130.38;4415188;32;19989;-70
2022/05/08 04:04:51;;;;;;;;;;;;;;;14.07;57.45;102132.38;4413854;32;20048;-70
2022/05/08 04:07:17;;;;;;;;;;;;;;;14.24;57.24;102136.19;4416878;32;20441;-70
2022/05/08 04:09:42;;;;;;;;;;;;;;;13.83;58.40;102125.88;4415165;32;19995;-70
2022/05/08 04:12:07;;;;;;;;;;;;;;;13.35;59.26;102138.72;4417114;32;20330;-70
2022/05/08 04:14:33;;;;;;;;;;;;;;;13.19;60.09;102128.00;4413191;32;20048;-70
2022/05/08 04:16:59;;;;;;;;;;;;;;;13.23;60.23;102125.91;4413217;32;19973;-70
2022/05/08 04:19:25;;;;;;;;;;;;;;;13.32;60.29;102133.91;4416086;32;20011;-70
2022/05/08 04:24:16;;;;;;;;;;;;;;;13.33;60.26;102132.66;4397993;32;20013;-70
2022/05/08 04:24:35;;;;;;;;;;;;;;;13.25;60.23;102129.13;4411915;32;19997;-70
2022/05/08 04:27:01;;;;;;;;;;;;;;;13.32;60.21;102131.84;4416901;32;19958;-70
2022/05/08 04:29:27;;;;;;;;;;;;;;;13.31;60.41;102130.28;4416398;32;19993;-70
2022/05/08 04:31:52;;;;;;;;;;;;;;;13.70;59.23;102132.56;4413349;32;20113;-70
2022/05/08 04:34:18;;;;;;;;;;;;;;;13.13;61.59;102132.50;4416355;32;19961;-70
2022/05/08 04:36:43;;;;;;;;;;;;;;;13.13;61.50;102131.72;4414688;32;19965;-70
2022/05/08 04:39:10;;;;;;;;;;;;;;;13.17;61.59;102140.97;4413612;32;20318;-70
2022/05/08 04:41:36;;;;;;;;;;;;;;;13.12;61.88;102130.12;4415955;32;19985;-70
2022/05/08 04:44:01;;;;;;;;;;;;;;;13.10;61.02;102139.00;4413750;32;19976;-70
2022/05/08 04:46:27;;;;;;;;;;;;;;;13.04;61.83;102143.53;4414444;32;19965;-70
2022/05/08 04:48:53;;;;;;;;;;;;;;;13.02;61.92;102148.81;4416685;32;19965;-70
2022/05/08 04:51:18;;;;;;;;;;;;;;;13.02;61.59;102148.00;4417956;32;20004;-70
2022/05/08 04:53:44;;;;;;;;;;;;;;;13.12;61.66;102149.91;4415482;32;19993;-70
2022/05/08 04:56:09;;;;;;;;;;;;;;;13.12;61.25;102142.22;4418837;32;19973;-70
2022/05/08 04:58:35;;;;;;;;;;;;;;;13.14;61.28;102145.44;4418802;32;20008;-70
2022/05/08 05:01:01;;;;;;;;;;;;;;;13.07;61.96;102141.91;4417957;32;20078;-70
2022/05/08 05:03:26;;;;;;;;;;;;;;;13.56;60.61;102144.88;4416039;32;20326;-70
2022/05/08 05:05:52;;;;;;;;;;;;;;;13.20;61.50;102155.03;4418207;32;19985;-70
2022/05/08 05:08:18;;;;;;;;;;;;;;;13.15;61.90;102151.87;4405368;32;20002;-70
2022/05/08 05:10:45;;;;;;;;;;;;;;;13.19;61.70;102150.62;4419366;32;19985;-70
2022/05/08 05:13:10;;;;;;;;;;;;;;;13.27;61.47;102157.78;4417628;32;20634;-70
2022/05/08 05:15:37;;;;;;;;;;;;;;;13.43;61.14;102157.97;4416765;32;20004;-70
2022/05/08 05:18:03;;;;;;;;;;;;;;;13.55;60.72;102157.41;4418743;32;20233;-70
2022/05/08 05:20:30;;;;;;;;;;;;;;;13.61;60.54;102163.41;4401375;32;19962;-70
2022/05/08 05:22:59;;;;;;;;;;;;;;;13.78;59.99;102156.69;4418586;32;19998;-70
2022/05/08 05:25:24;;;;;;;;;;;;;;;13.92;59.69;102162.13;4417842;32;20014;-70
2022/05/08 05:27:50;;;;;;;;;;;;;;;14.05;59.12;102160.31;4401234;32;19989;-70
2022/05/08 05:30:16;;;;;;;;;;;;;;;14.16;58.63;102166.63;4416297;32;20025;-70
2022/05/08 05:32:42;;;;;;;;;;;;;;;14.30;58.13;102165.63;4413363;32;19961;-70
2022/05/08 05:35:07;;;;;;;;;;;;;;;14.69;56.66;102166.53;4415816;32;20441;-70
2022/05/08 05:37:34;;;;;;;;;;;;;;;14.90;55.92;102177.47;4420960;32;19958;-70
2022/05/08 05:40:00;;;;;;;;;;;;;;;14.80;56.61;102172.00;4415850;32;19957;-70
2022/05/08 05:42:25;;;;;;;;;;;;;;;14.94;56.13;102164.03;4415085;32;19997;-70
2022/05/08 05:44:51;;;;;;;;;;;;;;;15.06;55.80;102171.06;4418547;32;20018;-70
2022/05/08 05:50:02;;;;;;;;;;;;;;;15.38;54.58;102168.44;4415174;32;19972;-70
2022/05/08 05:52:28;;;;;;;;;;;;;;;15.57;54.29;102173.28;4401275;32;20290;-70
2022/05/08 05:54:53;;;;;;;;;;;;;;;15.71;53.93;102185.13;4413651;32;20468;-71
2022/05/08 05:57:19;;;;;;;;;;;;;;;15.84;53.46;102185.25;4418377;32;20335;-71
2022/05/08 05:59:45;;;;;;;;;;;;;;;15.76;53.39;102183.81;4414476;32;20394;-71
2022/05/08 06:02:11;;;;;;;;;;;;;;;15.95;52.66;102180.94;4416286;32;20340;-71
2022/05/08 06:04:37;;;;;;;;;;;;;;;15.87;52.80;102179.47;4414876;32;20008;-70
2022/05/08 06:07:03;;;;;;;;;;;;;;;16.02;52.74;102179.16;4416609;32;19980;-70
2022/05/08 06:09:29;;;;;;;;;;;;;;;16.23;51.48;102178.66;4416673;32;20009;-70
2022/05/08 06:11:55;;;;;;;;;;;;;;;16.40;50.94;102189.56;4416273;32;19997;-71
2022/05/08 06:14:20;;;;;;;;;;;;;;;16.56;50.58;102183.91;4413111;32;20361;-71
2022/05/08 06:16:46;;;;;;;;;;;;;;;16.80;49.99;102185.31;4414557;32;20004;-71
2022/05/08 06:19:12;;;;;;;;;;;;;;;16.46;50.79;102184.19;4416867;32;19976;-71
2022/05/08 06:21:38;;;;;;;;;;;;;;;16.57;50.44;102191.19;4415064;32;19988;-70
2022/05/08 06:24:03;;;;;;;;;;;;;;;16.53;50.02;102196.16;4414185;32;20040;-70
2022/05/08 06:26:29;;;;;;;;;;;;;;;16.46;50.44;102196.34;4415641;32;20302;-70
2022/05/08 06:28:55;;;;;;;;;;;;;;;16.49;50.38;102200.34;4403510;32;19993;-71
2022/05/08 06:31:21;;;;;;;;;;;;;;;16.61;49.54;102208.97;4415650;32;20412;-71
2022/05/08 06:33:47;;;;;;;;;;;;;;;16.88;49.07;102206.59;4416937;32;20004;-71
2022/05/08 06:36:13;;;;;;;;;;;;;;;17.10;48.10;102207.66;4417752;32;19997;-71
2022/05/08 06:38:38;;;;;;;;;;;;;;;17.07;47.50;102202.87;4416465;32;20012;-71
2022/05/08 06:41:04;;;;;;;;;;;;;;;17.13;47.08;102205.94;4416627;32;20202;-71
2022/05/08 06:43:29;;;;;;;;;;;;;;;16.93;46.91;102208.09;4415232;32;20001;-71
2022/05/08 06:45:55;;;;;;;;;;;;;;;17.11;46.92;102212.09;4418360;32;20016;-71
2022/05/08 06:48:20;;;;;;;;;;;;;;;17.43;45.98;102209.16;4414495;32;20652;-71
2022/05/08 06:50:46;;;;;;;;;;;;;;;17.48;45.90;102207.81;4415288;32;20031;-71
2022/05/08 06:53:12;;;;;;;;;;;;;;;17.62;45.85;102205.31;4415069;32;20282;-71
2022/05/08 06:55:37;;;;;;;;;;;;;;;17.58;45.59;102204.66;4415497;32;20056;-71
2022/05/08 06:58:03;;;;;;;;;;;;;;;17.59;45.50;102209.09;4414500;32;20030;-71
2022/05/08 07:03:14;;;;;;;;;;;;;;;17.45;45.52;102203.00;4413529;32;19999;-71
2022/05/08 07:05:45;;;;;;;;;;;;;;;17.38;45.53;102208.88;4416134;32;19962;-71
2022/05/08 07:08:10;;;;;;;;;;;;;;;17.21;46.42;102213.81;4415725;32;19965;-70
2022/05/08 07:10:36;;;;;;;;;;;;;;;17.05;46.51;102213.06;4419638;32;19994;-71
2022/05/08 07:13:02;;;;;;;;;;;;;;;17.11;46.40;102212.09;4412045;32;20762;-71
2022/05/08 07:15:27;;;;;;;;;;;;;;;16.96;46.57;102219.41;4413252;32;20010;-70
2022/05/08 07:17:53;;;;;;;;;;;;;;;16.99;46.21;102212.81;4398008;32;20289;-70
2022/05/08 07:20:19;;;;;;;;;;;;;;;16.94;46.59;102218.25;4421293;32;19961;-70
2022/05/08 07:22:44;;;;;;;;;;;;;;;16.93;46.92;102206.06;4416737;32;20023;-70
2022/05/08 07:25:12;;;;;;;;;;;;;;;17.06;46.80;102220.37;4415938;32;20378;-70
2022/05/08 07:27:39;;;;;;;;;;;;;;;17.00;47.40;102208.72;4414847;32;20364;-71
2022/05/08 07:30:06;;;;;;;;;;;;;;;16.81;46.97;102208.88;4420270;32;20028;-71
2022/05/08 07:32:34;;;;;;;;;;;;;;;16.95;47.00;102206.44;4412891;32;19999;-71
2022/05/08 07:37:44;;;;;;;;;;;;;;;17.33;45.92;102210.22;4417098;32;20448;-70
2022/05/08 07:40:11;;;;;;;;;;;;;;;16.88;46.76;102206.59;4413141;32;19958;-71
2022/05/08 07:42:36;;;;;;;;;;;;;;;16.51;47.88;102203.56;4414153;32;19957;-71
2022/05/08 07:45:02;;;;;;;;;;;;;;;16.27;48.99;102204.94;4415875;32;19991;-71
2022/05/08 07:47:28;;;;;;;;;;;;;;;16.52;48.41;102202.31;4415187;32;19965;-71
2022/05/08 07:49:54;;;;;;;;;;;;;;;16.70;48.27;102202.66;4416589;32;19965;-71
2022/05/08 07:52:19;;;;;;;;;;;;;;;17.02;47.71;102205.44;4413984;32;19945;-71
2022/05/08 07:54:45;;;;;;;;;;;;;;;17.36;46.58;102211.38;4415487;32;19984;-71
2022/05/08 07:57:11;;;;;;;;;;;;;;;17.40;45.74;102203.56;4415314;32;20299;-71
2022/05/08 07:59:36;;;;;;;;;;;;;;;17.38;45.97;102206.03;4416325;32;20968;-71
2022/05/08 08:02:03;;;;;;;;;;;;;;;17.26;46.15;102210.44;4414309;32;20604;-71
2022/05/08 08:04:28;;;;;;;;;;;;;;;17.66;45.34;102203.19;4418920;32;20001;-71
2022/05/08 08:06:54;;;;;;;;;;;;;;;17.70;45.08;102203.88;4412755;32;20145;-71
2022/05/08 08:09:20;;;;;;;;;;;;;;;18.03;44.53;102198.78;4415706;32;19994;-71
2022/05/08 08:11:46;;;;;;;;;;;;;;;18.34;43.79;102199.81;4416637;32;19989;-71
2022/05/08 08:14:12;;;;;;;;;;;;;;;18.17;43.90;102201.19;4416227;32;19957;-71
2022/05/08 08:16:39;;;;;;;;;;;;;;;18.21;43.87;102201.88;4412920;32;20419;-71
2022/05/08 08:19:05;;;;;;;;;;;;;;;18.12;44.48;102200.94;4414681;32;20254;-71
2022/05/08 08:21:31;;;;;;;;;;;;;;;17.89;45.55;102199.25;4416917;32;20027;-71
2022/05/08 08:23:57;;;;;;;;;;;;;;;18.24;44.51;102197.31;4415716;32;20330;-71
2022/05/08 08:26:22;;;;;;;;;;;;;;;18.30;43.50;102201.19;4417295;32;20071;-71
2022/05/08 08:28:48;;;;;;;;;;;;;;;18.55;42.47;102204.03;4416302;32;20311;-71
2022/05/08 08:31:13;;;;;;;;;;;;;;;18.68;42.42;102201.97;4416006;32;19996;-70
2022/05/08 08:33:40;;;;;;;;;;;;;;;18.80;42.88;102198.28;4419070;32;20001;-71
2022/05/08 08:36:07;;;;;;;;;;;;;;;18.77;42.70;102193.47;4416670;32;20131;-71
2022/05/08 08:38:32;;;;;;;;;;;;;;;18.52;42.38;102193.53;4419128;32;20368;-71
2022/05/08 08:41:02;;;;;;;;;;;;;;;18.44;43.35;102192.97;4417654;32;20005;-71
2022/05/08 08:43:29;;;;;;;;;;;;;;;18.46;43.20;102195.38;4417872;32;20441;-71
2022/05/08 08:48:47;;;;;;;;;;;;;;;19.10;41.70;102201.28;4416376;32;20042;-71
2022/05/08 08:51:13;;;;;;;;;;;;;;;19.54;40.72;102194.34;4418317;32;20369;-71
2022/05/08 08:53:38;;;;;;;;;;;;;;;20.17;39.10;102196.78;4415787;32;19954;-71
2022/05/08 08:56:05;;;;;;;;;;;;;;;20.41;38.69;102203.53;4420551;32;19997;-71
2022/05/08 08:58:33;;;;;;;;;;;;;;;20.47;38.59;102207.38;4414033;32;20007;-71
2022/05/08 09:00:58;;;;;;;;;;;;;;;20.45;39.00;102197.66;4417174;32;19989;-71
2022/05/08 09:03:25;;;;;;;;;;;;;;;20.39;38.86;102196.69;4417039;32;20004;-71
2022/05/08 09:05:54;;;;;;;;;;;;;;;20.81;38.18;102195.69;4417400;32;20017;-71
2022/05/08 09:08:28;;;;;;;;;;;;;;;21.19;37.59;102187.47;4417827;32;19980;-71
2022/05/08 09:10:56;;;;;;;;;;;;;;;21.56;37.14;102199.69;4416799;32;20001;-71
2022/05/08 09:13:23;;;;;;;;;;;;;;;21.87;36.22;102191.69;4416759;32;19954;-71
2022/05/08 09:15:49;;;;;;;;;;;;;;;22.03;35.73;102191.28;4418412;32;20014;-71
2022/05/08 09:18:15;;;;;;;;;;;;;;;22.28;35.67;102195.81;4415916;32;19996;-71
2022/05/08 09:20:43;;;;;;;;;;;;;;;22.20;35.19;102189.66;4416461;32;20124;-71
2022/05/08 09:25:48;;;;;;;;;;;;;;;;;;3959252;32;15752362;-71
2022/05/08 09:28:14;;;;;;;;;;;;;;;;;;4443711;32;19965;-71
2022/05/08 09:30:59;;;;;;;;;;;;;;;22.13;35.18;102197.81;4440901;32;19996;-71
2022/05/08 09:36:05;;;;;;;;;;;;;;;22.43;35.30;102190.97;3952522;32;15736502;-71
2022/05/08 09:38:51;;;;;;;;;;;;;;;22.52;35.15;102188.88;4429242;32;19993;-69
2022/05/08 09:41:20;;;;;;;;;;;;;;;22.32;35.64;102188.63;4431214;32;20004;-71
2022/05/08 09:43:45;;;;;;;;;;;;;;;22.54;35.21;102189.19;4432658;32;19954;-70
2022/05/08 09:46:11;;;;;;;;;;;;;;;22.26;35.32;102186.91;4430145;32;20386;-71
2022/05/08 09:48:37;;;;;;;;;;;;;;;22.18;35.25;102183.59;4428054;32;19997;-71
2022/05/08 09:51:04;;;;;;;;;;;;;;;21.88;35.00;102193.28;4430424;32;20001;-71
2022/05/08 09:53:31;;;;;;;;;;;;;;;22.12;35.06;102191.25;4427533;32;20001;-71
2022/05/08 09:55:58;;;;;;;;;;;;;;;22.10;35.79;102190.16;4428765;32;20013;-71
2022/05/08 09:58:24;;;;;;;;;;;;;;;22.14;35.39;102173.56;4430531;32;19953;-71
2022/05/08 10:00:51;;;;;;;;;;;;;;;22.15;35.78;102178.81;4433489;32;20057;-71
2022/05/08 10:03:17;;;;;;;;;;;;;;;22.59;34.67;102184.84;4430749;32;20387;-71
2022/05/08 10:05:43;;;;;;;;;;;;;;;22.91;34.90;102187.66;4430300;32;20020;-71
2022/05/08 10:08:10;;;;;;;;;;;;;;;22.80;35.07;102181.66;4428067;32;20009;-71
2022/05/08 10:14:13;;;;;;;;;;;;;;;23.13;34.58;102175.81;4427492;32;20048;-71
2022/05/08 10:24:34;;;;;;;;;;;;;;;25.09;32.01;102178.84;3952840;32;15724533;-71
2022/05/08 10:27:20;;;;;;;;;;;;;;;25.09;32.01;102178.84;4429376;32;20398;-71
2022/05/08 10:35:23;;;;;;;;;;;;;;;25.06;31.44;102165.47;3954571;32;15733612;-71
2022/05/08 10:37:51;;;;;;;;;;;;;;;24.84;31.59;102156.56;4435874;32;19992;-71
2022/05/08 10:43:01;;;;;;;;;;;;;;;25.91;30.06;102160.88;3958075;32;15715685;-71
2022/05/08 10:48:12;;;;;;;;;;;;;;;26.28;30.09;102164.59;3961701;31;15722494;-71
2022/05/08 10:50:39;;;;;;;;;;;;;;;26.28;30.09;102164.59;4442054;32;19958;-71
2022/05/08 10:53:05;;;;;;;;;;;;;;;25.42;31.07;102164.06;4440331;32;19976;-71
2022/05/08 10:55:31;;;;;;;;;;;;;;;25.72;30.68;102167.50;4445296;32;19964;-71
2022/05/08 10:57:57;;;;;;;;;;;;;;;26.05;30.28;102156.28;4440992;32;20084;-71
2022/05/08 11:00:26;;;;;;;;;;;;;;;26.05;30.45;102162.81;4441124;32;19990;-71
2022/05/08 11:02:55;;;;;;;;;;;;;;;25.80;30.62;102160.75;4440743;32;20307;-71
2022/05/08 11:05:21;;;;;;;;;;;;;;;25.69;30.75;102154.09;4437440;32;20001;-71
2022/05/08 11:07:52;;;;;;;;;;;;;;;25.35;31.29;102150.09;4440482;32;20034;-71
2022/05/08 11:10:25;;;;;;;;;;;;;;;25.60;30.93;102154.28;4440645;32;19971;-71
2022/05/08 11:12:59;;;;;;;;;;;;;;;26.13;30.19;102151.59;4441615;32;19975;-71
2022/05/08 11:15:25;;;;;;;;;;;;;;;25.94;30.82;102150.38;4442317;32;20317;-71
2022/05/08 11:18:11;;;;;;;;;;;;;;;26.02;30.81;102158.13;4441790;32;19961;-71
2022/05/08 11:20:38;;;;;;;;;;;;;;;26.11;30.59;102142.69;4443388;32;20426;-71
2022/05/08 11:23:05;;;;;;;;;;;;;;;26.08;30.69;102144.50;4443468;32;20265;-71
2022/05/08 11:25:31;;;;;;;;;;;;;;;25.93;31.03;102131.50;4439781;32;19977;-71
2022/05/08 11:27:58;;;;;;;;;;;;;;;26.54;30.04;102133.50;4442794;32;20004;-71
2022/05/08 11:36:08;;;;;;;;;;;;;;;27.48;28.79;102131.00;4430803;32;21029;-71
2022/05/08 11:41:27;;;;;;;;;;;;;;;27.73;28.00;102124.16;3952677;32;15723397;-72
2022/05/08 11:43:55;;;;;;;;;;;;;;;27.95;27.98;102124.19;4426781;32;19962;-71
2022/05/08 11:46:43;;;;;;;;;;;;;;;28.00;27.17;102129.19;4430761;32;19996;-71
2022/05/08 11:49:18;;;;;;;;;;;;;;;27.79;27.23;102119.19;4430715;32;20031;-71
2022/05/08 11:51:45;;;;;;;;;;;;;;;27.67;27.11;102129.16;4430872;32;20006;-71
2022/05/08 11:54:30;;;;;;;;;;;;;;;27.81;27.23;102122.34;4430240;32;19962;-71
2022/05/08 11:57:16;;;;;;;;;;;;;;;27.65;27.32;102117.34;4426773;32;19970;-71
2022/05/08 11:59:44;;;;;;;;;;;;;;;26.82;28.26;102117.13;4432897;32;19958;-71
2022/05/08 12:02:10;;;;;;;;;;;;;;;26.56;28.91;102107.00;4431362;32;20034;-71
2022/05/08 12:04:36;;;;;;;;;;;;;;;26.88;28.66;102097.72;4428750;32;19980;-71
2022/05/08 12:07:06;;;;;;;;;;;;;;;26.99;28.24;102096.94;4414511;32;20040;-71
2022/05/08 12:09:32;;;;;;;;;;;;;;;27.46;27.69;102086.56;4431172;32;19949;-71
2022/05/08 12:12:18;;;;;;;;;;;;;;;28.25;27.06;102093.38;4429980;32;19969;-71
2022/05/08 12:14:44;;;;;;;;;;;;;;;28.49;26.46;102082.00;4430480;32;20472;-72
2022/05/08 12:17:09;;;;;;;;;;;;;;;28.93;25.98;102086.81;4427217;32;20008;-71
2022/05/08 12:19:35;;;;;;;;;;;;;;;29.68;24.94;102085.28;4428000;32;21393;-71
2022/05/08 12:22:17;;;;;;;;;;;;;;;29.33;25.41;102073.66;4427203;32;20005;-71
2022/05/08 12:24:43;;;;;;;;;;;;;;;29.45;25.60;102083.84;4428100;32;20508;-71
2022/05/08 12:27:08;;;;;;;;;;;;;;;28.83;25.79;102073.94;4429016;32;20034;-71
2022/05/08 12:29:35;;;;;;;;;;;;;;;29.04;25.99;102083.88;4429758;32;19984;-72
2022/05/08 12:32:01;;;;;;;;;;;;;;;28.76;26.09;102074.50;4429242;32;20037;-72
2022/05/08 12:34:27;;;;;;;;;;;;;;;28.27;26.58;102069.66;4427678;32;20239;-72
2022/05/08 12:36:52;;;;;;;;;;;;;;;27.98;27.02;102067.37;4429539;32;20004;-72
2022/05/08 12:39:19;;;;;;;;;;;;;;;27.45;27.93;102061.88;4428669;32;19965;-71
2022/05/08 12:41:45;;;;;;;;;;;;;;;27.67;27.49;102048.16;4429766;32;19961;-72
2022/05/08 12:44:11;;;;;;;;;;;;;;;27.92;27.36;102064.47;4427469;32;20015;-72
2022/05/08 12:46:36;;;;;;;;;;;;;;;27.44;27.92;102049.50;4428009;32;20008;-70
2022/05/08 12:49:02;;;;;;;;;;;;;;;26.78;28.70;102047.25;4431726;32;19965;-71
2022/05/08 12:51:29;;;;;;;;;;;;;;;26.65;28.89;102046.16;4423762;32;19997;-71
2022/05/08 12:53:55;;;;;;;;;;;;;;;26.58;29.02;102043.75;4417100;32;19968;-72
2022/05/08 12:56:21;;;;;;;;;;;;;;;26.63;29.17;102040.91;4419648;32;20820;-71
2022/05/08 13:01:35;;;;;;;;;;;;;;;27.77;27.62;102040.81;4420312;32;20004;-72
2022/05/08 13:04:02;;;;;;;;;;;;;;;26.10;29.67;102031.44;4417499;32;19950;-71
2022/05/08 13:06:27;;;;;;;;;;;;;;;26.48;29.12;102030.84;4418987;32;20386;-71
2022/05/08 13:08:53;;;;;;;;;;;;;;;26.87;28.66;102023.09;4421836;32;19957;-72
2022/05/08 13:11:19;;;;;;;;;;;;;;;27.10;28.53;102024.75;4416772;32;20079;-71
2022/05/08 13:13:45;;;;;;;;;;;;;;;27.98;27.47;102016.06;4418761;32;19961;-72
2022/05/08 13:16:14;;;;;;;;;;;;;;;27.95;27.62;102025.03;4421530;32;19965;-71
2022/05/08 13:18:40;;;;;;;;;;;;;;;28.23;26.88;102028.62;4416469;32;20005;-72
2022/05/08 13:21:05;;;;;;;;;;;;;;;28.32;26.67;102026.22;4419968;32;20397;-72
2022/05/08 13:23:31;;;;;;;;;;;;;;;28.51;26.58;102021.44;4418886;32;20017;-71
2022/05/08 13:25:57;;;;;;;;;;;;;;;28.03;27.05;102023.94;4417455;32;20009;-72
2022/05/08 13:28:22;;;;;;;;;;;;;;;27.34;28.00;102012.69;4422666;32;19967;-72
2022/05/08 13:30:48;;;;;;;;;;;;;;;26.98;28.76;102011.59;4420638;32;20302;-72